createdAt,value
2017-11-28T00:00:22.727Z,998.12
2017-11-28T00:01:03.276Z,998.09
2017-11-28T00:01:43.805Z,998.12
2017-11-28T00:02:24.389Z,998.08
2017-11-28T00:03:04.935Z,998.06
2017-11-28T00:03:45.507Z,998.05
2017-11-28T00:04:26.049Z,998.08
2017-11-28T00:05:06.629Z,998
2017-11-28T00:05:47.196Z,998.05
2017-11-28T00:06:27.727Z,998.01
2017-11-28T00:07:08.353Z,998
2017-11-28T00:07:48.900Z,997.96
2017-11-28T00:08:29.425Z,997.94
2017-11-28T00:09:10.047Z,998.01
2017-11-28T00:09:53.775Z,997.97
2017-11-28T00:10:34.337Z,997.97
2017-11-28T00:11:14.851Z,997.96
2017-11-28T00:11:55.384Z,997.94
2017-11-28T00:12:35.900Z,997.95
2017-11-28T00:13:16.495Z,997.96
2017-11-28T00:13:56.986Z,997.98
2017-11-28T00:14:37.556Z,997.94
2017-11-28T00:15:21.567Z,997.98
2017-11-28T00:16:02.112Z,997.95
2017-11-28T00:16:42.711Z,997.92
2017-11-28T00:17:23.217Z,997.95
2017-11-28T00:18:03.810Z,997.92
2017-11-28T00:18:46.042Z,997.97
2017-11-28T00:19:26.648Z,997.94
2017-11-28T00:20:07.278Z,997.94
2017-11-28T00:20:48.785Z,997.92
2017-11-28T00:21:29.389Z,997.93
2017-11-28T00:22:09.957Z,997.91
2017-11-28T00:22:50.441Z,997.89
2017-11-28T00:23:31.040Z,997.87
2017-11-28T00:24:11.566Z,997.92
2017-11-28T00:24:52.151Z,997.93
2017-11-28T00:25:32.669Z,997.91
2017-11-28T00:26:13.252Z,997.93
2017-11-28T00:26:53.824Z,997.92
2017-11-28T00:27:35.315Z,997.93
2017-11-28T00:28:14.898Z,997.92
2017-11-28T00:28:55.428Z,997.95
2017-11-28T00:29:35.977Z,997.94
2017-11-28T00:30:17.286Z,997.86
2017-11-28T00:30:57.098Z,997.89
2017-11-28T00:31:37.701Z,997.88
2017-11-28T00:32:18.212Z,997.89
2017-11-28T00:32:59.352Z,997.86
2017-11-28T00:33:39.959Z,997.89
2017-11-28T00:34:20.438Z,997.88
2017-11-28T00:35:01.016Z,997.86
2017-11-28T00:35:41.614Z,997.84
2017-11-28T00:36:22.178Z,997.86
2017-11-28T00:37:02.682Z,997.82
2017-11-28T00:37:43.254Z,997.81
2017-11-28T00:38:26.987Z,997.82
2017-11-28T00:39:07.498Z,997.83
2017-11-28T00:39:48.075Z,997.83
2017-11-28T00:40:28.639Z,997.82
2017-11-28T00:41:09.206Z,997.84
2017-11-28T00:41:49.763Z,997.82
2017-11-28T00:42:30.319Z,997.79
2017-11-28T00:43:14.127Z,997.78
2017-11-28T00:43:54.739Z,997.76
2017-11-28T00:44:35.251Z,997.77
2017-11-28T00:45:15.771Z,997.76
2017-11-28T00:45:56.297Z,997.74
2017-11-28T00:46:36.927Z,997.69
2017-11-28T00:47:17.416Z,997.75
2017-11-28T00:48:01.145Z,997.75
2017-11-28T00:48:41.822Z,997.7
2017-11-28T00:49:22.336Z,997.7
2017-11-28T00:50:02.901Z,997.69
2017-11-28T00:50:43.485Z,997.7
2017-11-28T00:51:24.049Z,997.63
2017-11-28T00:52:04.628Z,997.64
2017-11-28T00:52:45.207Z,997.64
2017-11-28T00:53:25.763Z,997.61
2017-11-28T00:54:06.303Z,997.6
2017-11-28T00:54:46.828Z,997.58
2017-11-28T00:55:27.396Z,997.6
2017-11-28T00:56:07.930Z,997.57
2017-11-28T00:56:48.495Z,997.57
2017-11-28T00:57:29.034Z,997.56
2017-11-28T00:58:10.359Z,997.56
2017-11-28T00:58:50.874Z,997.59
2017-11-28T00:59:31.427Z,997.57
2017-11-28T01:00:11.994Z,997.55
2017-11-28T01:00:52.478Z,997.58
2017-11-28T01:01:33.049Z,997.53
2017-11-28T01:02:13.595Z,997.57
2017-11-28T01:02:54.221Z,997.55
2017-11-28T01:03:34.707Z,997.55
2017-11-28T01:04:18.572Z,997.54
2017-11-28T01:04:59.138Z,997.52
2017-11-28T01:05:39.658Z,997.55
2017-11-28T01:06:20.252Z,997.57
2017-11-28T01:07:00.785Z,997.55
2017-11-28T01:07:41.397Z,997.52
2017-11-28T01:08:25.260Z,997.52
2017-11-28T01:09:05.767Z,997.53
2017-11-28T01:09:46.340Z,997.48
2017-11-28T01:10:26.885Z,997.49
2017-11-28T01:11:08.815Z,997.48
2017-11-28T01:11:48.348Z,997.48
2017-11-28T01:12:28.917Z,997.46
2017-11-28T01:13:11.945Z,997.43
2017-11-28T01:13:52.429Z,997.44
2017-11-28T01:14:33.049Z,997.42
2017-11-28T01:15:13.583Z,997.41
2017-11-28T01:15:54.121Z,997.43
2017-11-28T01:16:34.635Z,997.43
2017-11-28T01:17:15.255Z,997.44
2017-11-28T01:17:55.796Z,997.43
2017-11-28T01:18:36.555Z,997.46
2017-11-28T01:19:16.934Z,997.45
2017-11-28T01:19:57.559Z,997.46
2017-11-28T01:20:38.103Z,997.47
2017-11-28T01:21:18.652Z,997.47
2017-11-28T01:21:59.780Z,997.51
2017-11-28T01:22:39.657Z,997.52
2017-11-28T01:23:20.237Z,997.5
2017-11-28T01:24:00.797Z,997.55
2017-11-28T01:24:41.322Z,997.53
2017-11-28T01:25:21.856Z,997.55
2017-11-28T01:26:02.396Z,997.61
2017-11-28T01:26:42.990Z,997.57
2017-11-28T01:27:23.482Z,997.59
2017-11-28T01:28:04.095Z,997.56
2017-11-28T01:28:47.921Z,997.57
2017-11-28T01:29:28.445Z,997.54
2017-11-28T01:30:09.034Z,997.58
2017-11-28T01:30:49.584Z,997.52
2017-11-28T01:31:30.166Z,997.56
2017-11-28T01:32:10.665Z,997.56
2017-11-28T01:32:54.649Z,997.55
2017-11-28T01:33:35.229Z,997.52
2017-11-28T01:34:15.726Z,997.49
2017-11-28T01:34:56.366Z,997.47
2017-11-28T01:35:36.845Z,997.5
2017-11-28T01:36:21.337Z,997.48
2017-11-28T01:37:01.927Z,997.47
2017-11-28T01:37:42.452Z,997.48
2017-11-28T01:38:22.983Z,997.47
2017-11-28T01:39:03.595Z,997.47
2017-11-28T01:39:44.114Z,997.44
2017-11-28T01:40:24.671Z,997.44
2017-11-28T01:41:05.191Z,997.42
2017-11-28T01:41:45.789Z,997.41
2017-11-28T01:42:26.300Z,997.38
2017-11-28T01:43:06.855Z,997.42
2017-11-28T01:43:47.376Z,997.39
2017-11-28T01:44:27.920Z,997.35
2017-11-28T01:45:08.463Z,997.35
2017-11-28T01:45:49.017Z,997.37
2017-11-28T01:46:29.548Z,997.31
2017-11-28T01:47:10.074Z,997.32
2017-11-28T01:47:50.617Z,997.33
2017-11-28T01:48:31.249Z,997.28
2017-11-28T01:49:11.749Z,997.29
2017-11-28T01:49:52.253Z,997.26
2017-11-28T01:50:36.314Z,997.27
2017-11-28T01:51:16.872Z,997.3
2017-11-28T01:51:57.454Z,997.31
2017-11-28T01:52:38.008Z,997.28
2017-11-28T01:53:18.552Z,997.28
2017-11-28T01:53:59.178Z,997.28
2017-11-28T01:54:43.130Z,997.23
2017-11-28T01:55:23.685Z,997.25
2017-11-28T01:56:04.216Z,997.28
2017-11-28T01:56:44.747Z,997.22
2017-11-28T01:57:25.329Z,997.22
2017-11-28T01:58:05.921Z,997.19
2017-11-28T01:58:46.433Z,997.13
2017-11-28T01:59:29.723Z,997.17
2017-11-28T02:00:10.308Z,997.17
2017-11-28T02:00:50.772Z,997.11
2017-11-28T02:01:31.388Z,997.1
2017-11-28T02:02:11.888Z,997.09
2017-11-28T02:02:52.491Z,997.1
2017-11-28T02:03:32.978Z,997.06
2017-11-28T02:04:13.556Z,997.1
2017-11-28T02:04:54.085Z,997.08
2017-11-28T02:05:34.626Z,997.04
2017-11-28T02:06:15.192Z,997.07
2017-11-28T02:06:55.735Z,997.06
2017-11-28T02:07:36.292Z,997.06
2017-11-28T02:08:16.891Z,997.08
2017-11-28T02:08:57.438Z,997.05
2017-11-28T02:09:37.905Z,997.03
2017-11-28T02:10:18.510Z,997.08
2017-11-28T02:10:59.005Z,997.08
2017-11-28T02:11:39.513Z,997.08
2017-11-28T02:12:20.097Z,997.01
2017-11-28T02:13:00.623Z,997.07
2017-11-28T02:13:41.233Z,997.03
2017-11-28T02:14:21.793Z,997.03
2017-11-28T02:15:02.357Z,997.04
2017-11-28T02:15:46.475Z,997.05
2017-11-28T02:16:26.973Z,997.06
2017-11-28T02:17:07.599Z,997.04
2017-11-28T02:17:48.061Z,997
2017-11-28T02:18:28.629Z,997.01
2017-11-28T02:19:09.192Z,996.98
2017-11-28T02:19:53.028Z,996.92
2017-11-28T02:20:33.542Z,996.94
2017-11-28T02:21:14.149Z,996.89
2017-11-28T02:21:54.711Z,996.86
2017-11-28T02:22:35.298Z,996.86
2017-11-28T02:23:15.785Z,996.9
2017-11-28T02:23:56.436Z,996.85
2017-11-28T02:24:40.326Z,996.85
2017-11-28T02:25:20.871Z,996.85
2017-11-28T02:26:01.455Z,996.86
2017-11-28T02:26:42.048Z,996.83
2017-11-28T02:27:22.604Z,996.84
2017-11-28T02:28:03.079Z,996.87
2017-11-28T02:28:43.675Z,996.85
2017-11-28T02:29:24.142Z,996.85
2017-11-28T02:30:04.719Z,996.86
2017-11-28T02:30:45.245Z,996.84
2017-11-28T02:31:25.859Z,996.84
2017-11-28T02:32:06.468Z,996.86
2017-11-28T02:32:47.036Z,996.81
2017-11-28T02:36:20.703Z,996.77
2017-11-28T02:37:01.449Z,996.73
2017-11-28T02:37:42.075Z,996.72
2017-11-28T02:38:22.562Z,996.68
2017-11-28T02:39:03.129Z,996.67
2017-11-28T02:39:46.671Z,996.65
2017-11-28T02:40:27.177Z,996.63
2017-11-28T02:41:07.698Z,996.66
2017-11-28T02:41:48.297Z,996.64
2017-11-28T02:42:28.817Z,996.61
2017-11-28T02:43:09.468Z,996.62
2017-11-28T02:43:50.085Z,996.58
2017-11-28T02:44:30.688Z,996.56
2017-11-28T02:45:11.154Z,996.6
2017-11-28T02:45:51.809Z,996.53
2017-11-28T02:46:32.332Z,996.57
2017-11-28T02:47:12.789Z,996.57
2017-11-28T02:47:53.380Z,996.55
2017-11-28T02:48:33.857Z,996.58
2017-11-28T02:49:14.373Z,996.58
2017-11-28T02:49:54.944Z,996.55
2017-11-28T02:50:35.480Z,996.52
2017-11-28T02:51:16.059Z,996.5
2017-11-28T02:51:56.573Z,996.51
2017-11-28T02:52:37.152Z,996.5
2017-11-28T02:53:17.719Z,996.53
2017-11-28T02:53:58.265Z,996.48
2017-11-28T02:54:38.805Z,996.47
2017-11-28T02:55:19.374Z,996.5
2017-11-28T02:55:59.969Z,996.49
2017-11-28T02:56:40.470Z,996.46
2017-11-28T02:57:24.407Z,996.48
2017-11-28T02:58:04.980Z,996.46
2017-11-28T02:58:45.506Z,996.49
2017-11-28T02:59:26.054Z,996.43
2017-11-28T03:00:06.602Z,996.45
2017-11-28T03:00:47.171Z,996.43
2017-11-28T03:01:27.682Z,996.44
2017-11-28T03:02:11.696Z,996.47
2017-11-28T03:02:52.322Z,996.44
2017-11-28T03:03:32.871Z,996.5
2017-11-28T03:04:13.431Z,996.51
2017-11-28T03:04:53.994Z,996.48
2017-11-28T03:05:34.519Z,996.52
2017-11-28T03:06:15.131Z,996.51
2017-11-28T03:06:58.625Z,996.49
2017-11-28T03:07:39.145Z,996.49
2017-11-28T03:08:19.810Z,996.46
2017-11-28T03:09:00.298Z,996.47
2017-11-28T03:09:40.912Z,996.5
2017-11-28T03:10:21.449Z,996.48
2017-11-28T03:11:02.022Z,996.46
2017-11-28T03:11:42.577Z,996.45
2017-11-28T03:12:23.110Z,996.46
2017-11-28T03:13:03.752Z,996.43
2017-11-28T03:13:44.195Z,996.41
2017-11-28T03:14:24.733Z,996.49
2017-11-28T03:15:05.330Z,996.47
2017-11-28T03:15:45.903Z,996.46
2017-11-28T03:16:26.456Z,996.45
2017-11-28T03:17:07.020Z,996.45
2017-11-28T03:17:47.556Z,996.42
2017-11-28T03:18:28.140Z,996.43
2017-11-28T03:19:08.685Z,996.45
2017-11-28T03:19:49.238Z,996.5
2017-11-28T03:20:29.761Z,996.46
2017-11-28T03:21:10.331Z,996.54
2017-11-28T03:21:50.909Z,996.56
2017-11-28T03:22:31.446Z,996.56
2017-11-28T03:23:12.013Z,996.55
2017-11-28T03:23:52.647Z,996.51
2017-11-28T03:24:33.093Z,996.56
2017-11-28T03:25:13.647Z,996.62
2017-11-28T03:25:54.177Z,996.55
2017-11-28T03:26:38.586Z,996.52
2017-11-28T03:27:19.139Z,996.5
2017-11-28T03:27:59.708Z,996.52
2017-11-28T03:28:40.233Z,996.46
2017-11-28T03:29:24.046Z,996.51
2017-11-28T03:30:04.517Z,996.53
2017-11-28T03:30:45.129Z,996.49
2017-11-28T03:31:25.624Z,996.48
2017-11-28T03:32:06.345Z,996.52
2017-11-28T03:32:46.741Z,996.52
2017-11-28T03:33:27.333Z,996.52
2017-11-28T03:34:11.000Z,996.51
2017-11-28T03:34:51.579Z,996.52
2017-11-28T03:35:32.156Z,996.53
2017-11-28T03:36:12.766Z,996.52
2017-11-28T03:36:53.326Z,996.45
2017-11-28T03:37:33.803Z,996.47
2017-11-28T03:38:14.345Z,996.45
2017-11-28T03:38:54.865Z,996.46
2017-11-28T03:39:35.396Z,996.41
2017-11-28T03:40:15.933Z,996.45
2017-11-28T03:40:56.511Z,996.42
2017-11-28T03:41:37.037Z,996.39
2017-11-28T03:42:17.568Z,996.35
2017-11-28T03:42:58.078Z,996.35
2017-11-28T03:43:38.630Z,996.39
2017-11-28T03:44:19.244Z,996.35
2017-11-28T03:44:59.840Z,996.35
2017-11-28T03:45:40.333Z,996.34
2017-11-28T03:46:20.854Z,996.32
2017-11-28T03:47:01.412Z,996.31
2017-11-28T03:47:41.944Z,996.3
2017-11-28T03:48:22.508Z,996.32
2017-11-28T03:49:03.013Z,996.31
2017-11-28T03:49:46.704Z,996.24
2017-11-28T03:50:27.228Z,996.29
2017-11-28T03:51:07.822Z,996.27
2017-11-28T03:51:48.383Z,996.31
2017-11-28T03:52:28.885Z,996.27
2017-11-28T03:53:09.511Z,996.29
2017-11-28T03:53:53.430Z,996.32
2017-11-28T03:54:34.011Z,996.28
2017-11-28T03:55:14.515Z,996.28
2017-11-28T03:55:55.252Z,996.29
2017-11-28T03:56:35.687Z,996.27
2017-11-28T03:57:19.062Z,996.24
2017-11-28T03:57:59.629Z,996.32
2017-11-28T03:58:40.189Z,996.3
2017-11-28T03:59:20.718Z,996.27
2017-11-28T04:00:01.252Z,996.29
2017-11-28T04:00:41.771Z,996.34
2017-11-28T04:01:22.303Z,996.36
2017-11-28T04:43:10.489Z,996.44
2017-11-28T04:43:50.643Z,996.4
2017-11-28T04:44:31.053Z,996.43
2017-11-28T04:45:11.443Z,996.44
2017-11-28T04:45:51.891Z,996.45
2017-11-28T04:46:32.348Z,996.46
2017-11-28T04:47:12.651Z,996.45
2017-11-28T04:47:53.166Z,996.48
2017-11-28T04:48:33.680Z,996.49
2017-11-28T04:49:14.136Z,996.51
2017-11-28T04:49:54.662Z,996.54
2017-11-28T04:50:34.944Z,996.52
2017-11-28T04:51:15.376Z,996.56
2017-11-28T04:51:55.785Z,996.49
2017-11-28T04:52:36.169Z,996.5
2017-11-28T04:53:16.609Z,996.49
2017-11-28T04:53:57.001Z,996.48
2017-11-28T04:54:37.490Z,996.51
2017-11-28T04:55:18.285Z,996.54
2017-11-28T04:55:58.618Z,996.53
2017-11-28T04:56:39.146Z,996.5
2017-11-28T04:57:21.760Z,996.51
2017-11-28T04:58:02.321Z,996.59
2017-11-28T04:58:42.731Z,996.51
2017-11-28T04:59:23.245Z,996.48
2017-11-28T05:00:03.866Z,996.5
2017-11-28T05:00:44.279Z,996.47
2017-11-28T05:01:25.213Z,996.52
2017-11-28T05:02:05.744Z,996.59
2017-11-28T05:02:46.253Z,996.59
2017-11-28T05:03:26.642Z,996.59
2017-11-28T05:04:07.174Z,996.6
2017-11-28T05:04:47.547Z,996.6
2017-11-28T05:05:27.921Z,996.54
2017-11-28T05:06:08.773Z,996.56
2017-11-28T05:06:49.747Z,996.54
2017-11-28T05:07:30.111Z,996.54
2017-11-28T05:08:11.092Z,996.5
2017-11-28T05:08:51.901Z,996.55
2017-11-28T05:09:33.201Z,996.54
2017-11-28T05:10:13.878Z,996.46
2017-11-28T05:10:54.434Z,996.53
2017-11-28T05:11:35.339Z,996.47
2017-11-28T05:12:16.944Z,996.48
2017-11-28T05:12:57.530Z,996.5
2017-11-28T05:13:37.805Z,996.51
2017-11-28T05:14:18.903Z,996.52
2017-11-28T05:14:59.531Z,996.53
2017-11-28T05:15:40.015Z,996.57
2017-11-28T05:16:20.692Z,996.59
2017-11-28T05:17:01.120Z,996.55
2017-11-28T05:17:41.493Z,996.55
2017-11-28T05:18:21.915Z,996.55
2017-11-28T05:19:02.298Z,996.49
2017-11-28T05:19:42.689Z,996.51
2017-11-28T05:20:23.071Z,996.53
2017-11-28T05:21:03.463Z,996.55
2017-11-28T05:21:43.967Z,996.52
2017-11-28T05:22:24.306Z,996.54
2017-11-28T05:23:04.799Z,996.58
2017-11-28T05:23:45.117Z,996.54
2017-11-28T05:24:25.663Z,996.49
2017-11-28T05:25:06.330Z,996.56
2017-11-28T05:25:47.093Z,996.54
2017-11-28T05:26:27.722Z,996.61
2017-11-28T05:27:08.261Z,996.59
2017-11-28T05:27:48.691Z,996.6
2017-11-28T05:28:29.183Z,996.6
2017-11-28T05:29:09.653Z,996.56
2017-11-28T05:29:49.961Z,996.66
2017-11-28T05:30:30.414Z,996.55
2017-11-28T05:31:10.772Z,996.61
2017-11-28T05:31:51.789Z,996.66
2017-11-28T05:32:32.474Z,996.64
2017-11-28T05:33:12.834Z,996.59
2017-11-28T05:33:53.433Z,996.63
2017-11-28T05:34:33.822Z,996.63
2017-11-28T05:35:14.418Z,996.66
2017-11-28T05:35:54.705Z,996.64
2017-11-28T05:36:35.125Z,996.63
2017-11-28T05:37:15.554Z,996.61
2017-11-28T05:37:55.986Z,996.61
2017-11-28T05:38:36.357Z,996.58
2017-11-28T05:39:16.844Z,996.62
2017-11-28T05:39:57.288Z,996.63
2017-11-28T05:40:37.652Z,996.66
2017-11-28T05:41:18.089Z,996.69
2017-11-28T05:41:58.705Z,996.65
2017-11-28T05:42:39.499Z,996.63
2017-11-28T05:43:19.839Z,996.67
2017-11-28T05:44:00.328Z,996.61
2017-11-28T05:44:40.675Z,996.59
2017-11-28T05:45:21.118Z,996.63
2017-11-28T05:46:01.516Z,996.65
2017-11-28T05:46:41.931Z,996.62
2017-11-28T05:47:22.434Z,996.63
2017-11-28T05:48:02.716Z,996.62
2017-11-28T05:48:43.753Z,996.61
2017-11-28T05:49:24.140Z,996.59
2017-11-28T05:50:04.549Z,996.65
2017-11-28T05:52:35.192Z,996.68
2017-11-28T05:53:17.519Z,996.66
2017-11-28T05:53:58.487Z,996.63
2017-11-28T05:54:38.920Z,996.63
2017-11-28T05:55:19.319Z,996.66
2017-11-28T05:55:59.724Z,996.68
2017-11-28T05:56:40.278Z,996.67
2017-11-28T05:57:20.954Z,996.69
2017-11-28T05:58:01.419Z,996.66
2017-11-28T05:58:42.300Z,996.69
2017-11-28T05:59:23.078Z,996.65
2017-11-28T06:00:03.261Z,996.63
2017-11-28T06:00:43.599Z,996.65
2017-11-28T06:01:24.049Z,996.64
2017-11-28T06:02:04.404Z,996.63
2017-11-28T06:02:44.850Z,996.59
2017-11-28T06:03:25.270Z,996.62
2017-11-28T06:04:05.657Z,996.57
2017-11-28T06:04:46.046Z,996.65
2017-11-28T06:05:26.445Z,996.61
2017-11-28T06:06:06.874Z,996.66
2017-11-28T06:06:47.271Z,996.68
2017-11-28T06:07:27.678Z,996.66
2017-11-28T06:08:08.087Z,996.68
2017-11-28T06:08:49.544Z,996.67
2017-11-28T06:09:29.225Z,996.65
2017-11-28T06:10:09.632Z,996.67
2017-11-28T06:10:50.076Z,996.68
2017-11-28T06:11:30.460Z,996.7
2017-11-28T06:12:10.869Z,996.68
2017-11-28T06:12:51.294Z,996.77
2017-11-28T06:13:31.701Z,996.74
2017-11-28T06:14:12.125Z,996.72
2017-11-28T06:14:52.552Z,996.76
2017-11-28T06:15:32.911Z,996.75
2017-11-28T06:16:13.301Z,996.75
2017-11-28T06:16:53.766Z,996.79
2017-11-28T06:17:34.169Z,996.79
2017-11-28T06:18:14.533Z,996.85
2017-11-28T06:18:54.968Z,996.84
2017-11-28T06:19:35.402Z,996.87
2017-11-28T06:20:15.745Z,996.86
2017-11-28T06:20:56.183Z,996.86
2017-11-28T06:21:36.638Z,996.89
2017-11-28T06:22:17.222Z,996.88
2017-11-28T06:22:57.733Z,996.89
2017-11-28T06:23:38.121Z,996.88
2017-11-28T06:24:18.491Z,996.86
2017-11-28T06:24:58.889Z,996.88
2017-11-28T06:25:39.254Z,996.89
2017-11-28T06:26:19.636Z,996.89
2017-11-28T06:27:00.036Z,996.93
2017-11-28T06:27:40.469Z,996.92
2017-11-28T06:28:20.876Z,996.93
2017-11-28T06:29:01.294Z,996.94
2017-11-28T06:29:41.684Z,996.9
2017-11-28T06:30:22.109Z,996.9
2017-11-28T06:31:02.512Z,996.92
2017-11-28T06:31:42.916Z,996.9
2017-11-28T06:32:23.294Z,996.92
2017-11-28T06:33:03.682Z,996.89
2017-11-28T06:33:44.098Z,996.96
2017-11-28T06:34:24.481Z,996.95
2017-11-28T06:35:04.918Z,996.95
2017-11-28T06:37:34.286Z,997.01
2017-11-28T06:38:16.710Z,997.02
2017-11-28T06:38:57.103Z,997.01
2017-11-28T06:39:37.494Z,997.03
2017-11-28T06:40:17.908Z,997.07
2017-11-28T06:40:58.312Z,997.03
2017-11-28T06:41:38.707Z,997.06
2017-11-28T06:42:19.118Z,997.11
2017-11-28T06:42:59.552Z,997.07
2017-11-28T06:43:39.907Z,997.07
2017-11-28T06:44:20.330Z,997.12
2017-11-28T06:45:00.736Z,997.1
2017-11-28T06:45:41.148Z,997.13
2017-11-28T06:46:21.599Z,997.07
2017-11-28T06:47:01.963Z,997.05
2017-11-28T06:47:42.502Z,997.05
2017-11-28T06:48:22.899Z,997.07
2017-11-28T06:49:03.344Z,997.04
2017-11-28T06:49:45.228Z,997.04
2017-11-28T06:50:25.733Z,997.05
2017-11-28T06:51:06.144Z,997.09
2017-11-28T06:51:46.470Z,997.06
2017-11-28T06:52:26.987Z,997.07
2017-11-28T06:53:08.159Z,997.06
2017-11-28T06:53:48.505Z,997.05
2017-11-28T06:54:29.002Z,997.01
2017-11-28T06:55:09.416Z,997.03
2017-11-28T06:55:50.109Z,997.06
2017-11-28T06:56:30.771Z,997.03
2017-11-28T06:57:11.681Z,997.05
2017-11-28T06:57:52.486Z,997.06
2017-11-28T06:58:33.324Z,997.04
2017-11-28T06:59:15.039Z,997.05
2017-11-28T06:59:54.657Z,997.08
2017-11-28T07:00:35.250Z,997.08
2017-11-28T07:01:15.723Z,997.09
2017-11-28T07:01:56.408Z,997.07
2017-11-28T07:02:36.986Z,997.06
2017-11-28T07:03:17.592Z,997.06
2017-11-28T07:03:57.995Z,997.1
2017-11-28T07:04:39.475Z,997.1
2017-11-28T07:05:19.031Z,997.09
2017-11-28T07:05:59.604Z,997.14
2017-11-28T07:06:41.294Z,997.17
2017-11-28T07:07:20.951Z,997.14
2017-11-28T07:08:02.410Z,997.16
2017-11-28T07:08:43.287Z,997.23
2017-11-28T07:09:25.293Z,997.21
2017-11-28T07:10:05.858Z,997.24
2017-11-28T07:10:45.690Z,997.22
2017-11-28T07:11:26.477Z,997.22
2017-11-28T07:12:07.810Z,997.22
2017-11-28T07:12:48.111Z,997.27
2017-11-28T07:13:28.726Z,997.22
2017-11-28T07:14:09.363Z,997.22
2017-11-28T07:14:49.770Z,997.23
2017-11-28T07:15:30.580Z,997.27
2017-11-28T07:16:11.827Z,997.29
2017-11-28T07:16:51.797Z,997.25
2017-11-28T07:17:33.438Z,997.25
2017-11-28T07:18:13.441Z,997.25
2017-11-28T07:18:54.815Z,997.28
2017-11-28T07:19:35.144Z,997.24
2017-11-28T07:20:15.604Z,997.25
2017-11-28T07:20:56.389Z,997.28
2017-11-28T07:21:36.812Z,997.27
2017-11-28T07:22:18.319Z,997.23
2017-11-28T07:22:58.215Z,997.28
2017-11-28T07:23:39.157Z,997.26
2017-11-28T07:24:19.863Z,997.26
2017-11-28T07:25:00.274Z,997.28
2017-11-28T07:25:41.055Z,997.24
2017-11-28T07:26:21.475Z,997.25
2017-11-28T07:27:02.055Z,997.25
2017-11-28T07:27:42.813Z,997.2
2017-11-28T07:28:23.297Z,997.21
2017-11-28T07:29:03.668Z,997.25
2017-11-28T07:29:52.262Z,997.21
2017-11-28T07:30:30.917Z,997.27
2017-11-28T07:31:12.011Z,997.27
2017-11-28T07:31:52.285Z,997.24
2017-11-28T07:32:32.865Z,997.27
2017-11-28T07:33:17.922Z,997.29
2017-11-28T07:33:58.201Z,997.26
2017-11-28T07:34:38.880Z,997.27
2017-11-28T07:35:19.813Z,997.3
2017-11-28T07:36:01.809Z,997.28
2017-11-28T07:36:40.942Z,997.27
2017-11-28T07:37:21.444Z,997.32
2017-11-28T07:38:02.896Z,997.3
2017-11-28T07:38:48.948Z,997.32
2017-11-28T07:39:28.531Z,997.28
2017-11-28T07:40:11.510Z,997.26
2017-11-28T07:40:51.975Z,997.25
2017-11-28T07:41:33.806Z,997.24
2017-11-28T07:42:13.615Z,997.26
2017-11-28T07:42:54.281Z,997.25
2017-11-28T07:43:35.224Z,997.28
2017-11-28T07:44:15.988Z,997.27
2017-11-28T07:44:56.905Z,997.26
2017-11-28T07:45:38.355Z,997.33
2017-11-28T07:46:19.438Z,997.29
2017-11-28T07:47:01.611Z,997.23
2017-11-28T07:47:42.292Z,997.26
2017-11-28T07:48:24.071Z,997.23
2017-11-28T07:49:04.346Z,997.25
2017-11-28T07:49:45.821Z,997.24
2017-11-28T07:50:26.378Z,997.26
2017-11-28T07:51:06.506Z,997.29
2017-11-28T07:51:47.296Z,997.31
2017-11-28T07:52:28.107Z,997.31
2017-11-28T07:53:10.011Z,997.29
2017-11-28T07:53:51.864Z,997.34
2017-11-28T07:54:32.027Z,997.35
2017-11-28T07:55:14.724Z,997.31
2017-11-28T07:55:55.323Z,997.31
2017-11-28T07:56:36.841Z,997.33
2017-11-28T07:57:17.039Z,997.35
2017-11-28T07:57:57.806Z,997.36
2017-11-28T07:58:40.487Z,997.4
2017-11-28T07:59:25.036Z,997.38
2017-11-28T08:00:04.664Z,997.36
2017-11-28T08:00:45.741Z,997.37
2017-11-28T08:01:26.509Z,997.4
2017-11-28T08:02:08.322Z,997.39
2017-11-28T08:02:48.938Z,997.4
2017-11-28T08:03:31.314Z,997.41
2017-11-28T08:04:11.955Z,997.36
2017-11-28T08:04:52.854Z,997.32
2017-11-28T08:05:37.900Z,997.32
2017-11-28T08:06:17.817Z,997.39
2017-11-28T08:06:58.470Z,997.38
2017-11-28T08:07:39.388Z,997.35
2017-11-28T08:08:20.627Z,997.37
2017-11-28T08:09:04.180Z,997.32
2017-11-28T08:09:46.472Z,997.33
2017-11-28T08:10:27.346Z,997.33
2017-11-28T08:11:08.117Z,997.32
2017-11-28T08:11:48.591Z,997.36
2017-11-28T08:12:29.200Z,997.3
2017-11-28T08:13:09.616Z,997.38
2017-11-28T08:13:50.258Z,997.4
2017-11-28T08:14:31.826Z,997.39
2017-11-28T08:15:12.346Z,997.39
2017-11-28T08:15:52.821Z,997.32
2017-11-28T08:16:33.900Z,997.39
2017-11-28T08:17:13.749Z,997.35
2017-11-28T08:17:54.297Z,997.34
2017-11-28T08:18:35.145Z,997.37
2017-11-28T08:19:15.743Z,997.36
2017-11-28T08:19:56.483Z,997.35
2017-11-28T08:20:37.851Z,997.4
2017-11-28T08:21:18.586Z,997.39
2017-11-28T08:21:58.794Z,997.41
2017-11-28T08:22:39.840Z,997.37
2017-11-28T08:23:21.306Z,997.43
2017-11-28T08:24:02.320Z,997.43
2017-11-28T08:24:42.340Z,997.44
2017-11-28T08:25:22.898Z,997.42
2017-11-28T08:26:03.373Z,997.44
2017-11-28T08:26:43.908Z,997.45
2017-11-28T08:27:25.825Z,997.46
2017-11-28T08:28:06.820Z,997.46
2017-11-28T08:28:46.771Z,997.49
2017-11-28T08:29:27.593Z,997.53
2017-11-28T08:30:08.538Z,997.42
2017-11-28T08:30:49.090Z,997.55
2017-11-28T08:31:29.726Z,997.55
2017-11-28T08:32:10.313Z,997.52
2017-11-28T08:32:51.484Z,997.5
2017-11-28T08:33:31.676Z,997.5
2017-11-28T08:34:12.041Z,997.52
2017-11-28T08:34:52.480Z,997.48
2017-11-28T08:35:32.992Z,997.49
2017-11-28T08:36:13.311Z,997.51
2017-11-28T08:36:53.745Z,997.53
2017-11-28T08:37:34.162Z,997.47
2017-11-28T08:38:14.614Z,997.41
2017-11-28T08:38:55.011Z,997.36
2017-11-28T08:39:35.456Z,997.46
2017-11-28T08:40:15.910Z,997.43
2017-11-28T08:40:56.323Z,997.44
2017-11-28T08:41:36.796Z,997.45
2017-11-28T08:42:17.180Z,997.43
2017-11-28T08:42:57.610Z,997.43
2017-11-28T08:43:38.035Z,997.52
2017-11-28T08:44:18.583Z,997.48
2017-11-28T08:44:59.026Z,997.49
2017-11-28T08:45:39.360Z,997.45
2017-11-28T08:46:19.927Z,997.51
2017-11-28T08:47:00.830Z,997.46
2017-11-28T08:47:40.964Z,997.47
2017-11-28T08:48:21.399Z,997.51
2017-11-28T08:49:01.717Z,997.5
2017-11-28T08:49:42.242Z,997.49
2017-11-28T08:50:22.858Z,997.5
2017-11-28T08:51:03.315Z,997.51
2017-11-28T08:51:43.771Z,997.47
2017-11-28T08:52:24.191Z,997.42
2017-11-28T08:53:04.611Z,997.41
2017-11-28T08:53:45.064Z,997.45
2017-11-28T08:54:25.651Z,997.45
2017-11-28T08:55:06.060Z,997.47
2017-11-28T08:55:46.465Z,997.42
2017-11-28T08:56:27.092Z,997.37
2017-11-28T08:57:07.441Z,997.43
2017-11-28T08:57:47.956Z,997.42
2017-11-28T08:58:28.433Z,997.39
2017-11-28T08:59:08.873Z,997.36
2017-11-28T08:59:49.338Z,997.45
2017-11-28T09:00:29.813Z,997.38
2017-11-28T09:01:10.528Z,997.44
2017-11-28T09:01:51.143Z,997.46
2017-11-28T09:02:31.889Z,997.43
2017-11-28T09:03:12.260Z,997.46
2017-11-28T09:03:52.656Z,997.43
2017-11-28T09:04:33.266Z,997.44
2017-11-28T09:05:13.665Z,997.44
2017-11-28T09:05:54.486Z,997.38
2017-11-28T09:06:34.866Z,997.46
2017-11-28T09:07:15.843Z,997.44
2017-11-28T09:07:56.808Z,997.46
2017-11-28T09:08:37.249Z,997.46
2017-11-28T09:09:17.720Z,997.47
2017-11-28T09:09:58.221Z,997.38
2017-11-28T09:10:38.715Z,997.45
2017-11-28T09:11:19.139Z,997.51
2017-11-28T09:11:59.530Z,997.54
2017-11-28T09:12:39.970Z,997.58
2017-11-28T09:18:24.176Z,997.64
2017-11-28T09:19:08.836Z,997.64
2017-11-28T09:19:49.261Z,997.71
2017-11-28T09:20:33.288Z,997.72
2017-11-28T09:21:13.808Z,997.64
2017-11-28T09:21:57.420Z,997.71
2017-11-28T09:22:39.205Z,997.67